createdAt,value
2022-11-21T00:01:16.783Z,44.90
2022-11-21T00:03:45.038Z,42.20
2022-11-21T00:06:13.426Z,42.70
2022-11-21T00:08:41.686Z,42.00
2022-11-21T00:11:09.617Z,42.20
2022-11-21T00:13:37.873Z,40.80
2022-11-21T00:16:08.109Z,43.80
2022-11-21T00:18:36.066Z,39.40
2022-11-21T00:21:06.025Z,38.00
2022-11-21T00:23:34.050Z,36.20
2022-11-21T00:26:06.590Z,34.70
2022-11-21T00:28:35.080Z,33.40
2022-11-21T00:31:03.708Z,32.50
2022-11-21T00:33:32.384Z,33.40
2022-11-21T00:36:06.981Z,33.80
2022-11-21T00:38:35.594Z,30.70
2022-11-21T00:41:03.673Z,31.50
2022-11-21T00:43:31.739Z,30.70
2022-11-21T00:46:01.535Z,29.50
2022-11-21T00:48:30.261Z,28.20
2022-11-21T00:51:00.778Z,29.00
2022-11-21T00:53:29.941Z,27.90
2022-11-21T00:55:58.159Z,32.70
2022-11-21T00:58:26.625Z,34.70
2022-11-21T01:01:03.619Z,36.70
2022-11-21T01:03:34.189Z,35.80
2022-11-21T01:06:12.988Z,34.10
2022-11-21T01:08:43.386Z,36.00
2022-11-21T01:11:21.232Z,34.90
2022-11-21T01:13:50.017Z,31.00
2022-11-21T01:16:22.711Z,27.00
2022-11-21T01:18:51.445Z,26.00
2022-11-21T01:21:30.621Z,26.30
2022-11-21T01:24:02.904Z,25.90
2022-11-21T01:26:33.112Z,28.20
2022-11-21T01:29:01.045Z,24.20
2022-11-21T01:31:30.649Z,28.40
2022-11-21T01:34:00.359Z,27.80
2022-11-21T01:36:31.113Z,36.00
2022-11-21T01:39:03.570Z,34.40
2022-11-21T01:41:37.683Z,29.40
2022-11-21T01:44:17.907Z,27.10
2022-11-21T01:46:46.527Z,26.90
2022-11-21T01:49:20.264Z,26.30
2022-11-21T01:51:56.188Z,24.90
2022-11-21T01:57:07.080Z,26.10
2022-11-21T01:59:44.904Z,27.20
2022-11-21T02:02:15.524Z,28.90
2022-11-21T02:04:44.711Z,26.80
2022-11-21T02:07:14.978Z,26.70
2022-11-21T02:09:46.832Z,26.60
2022-11-21T02:12:29.820Z,25.20
2022-11-21T02:14:58.756Z,26.50
2022-11-21T02:17:29.852Z,26.10
2022-11-21T02:20:00.807Z,24.20
2022-11-21T02:22:34.802Z,23.40
2022-11-21T02:25:14.240Z,23.50
2022-11-21T02:27:42.623Z,23.60
2022-11-21T02:30:12.331Z,23.90
2022-11-21T02:32:45.353Z,23.30
2022-11-21T02:35:17.793Z,21.40
2022-11-21T02:37:48.324Z,23.90
2022-11-21T02:40:25.554Z,24.90
2022-11-21T02:43:18.998Z,24.80
2022-11-21T02:45:47.131Z,23.50
2022-11-21T02:48:15.450Z,24.00
2022-11-21T02:50:45.391Z,23.00
2022-11-21T02:53:16.512Z,23.70
2022-11-21T02:55:44.972Z,23.50
2022-11-21T02:58:12.941Z,22.50
2022-11-21T03:00:42.929Z,23.60
2022-11-21T03:03:11.524Z,24.20
2022-11-21T03:05:39.929Z,21.80
2022-11-21T03:08:08.200Z,23.90
2022-11-21T03:10:36.280Z,22.60
2022-11-21T03:13:04.207Z,22.20
2022-11-21T03:15:34.331Z,22.80
2022-11-21T03:18:03.352Z,20.70
2022-11-21T03:20:32.888Z,22.60
2022-11-21T03:23:01.251Z,22.30
2022-11-21T03:25:30.233Z,20.80
2022-11-21T03:27:58.306Z,20.90
2022-11-21T03:30:27.774Z,20.30
2022-11-21T03:32:56.848Z,19.60
2022-11-21T03:35:25.392Z,19.60
2022-11-21T03:37:53.667Z,20.40
2022-11-21T03:40:21.656Z,19.50
2022-11-21T03:42:49.506Z,21.20
2022-11-21T03:45:17.475Z,21.20
2022-11-21T03:47:45.314Z,21.10
2022-11-21T03:50:15.309Z,21.10
2022-11-21T03:52:43.111Z,21.10
2022-11-21T03:55:11.095Z,20.10
2022-11-21T03:57:39.783Z,20.60
2022-11-21T04:00:08.661Z,18.20
2022-11-21T04:02:36.507Z,19.80
2022-11-21T04:05:04.933Z,19.10
2022-11-21T04:07:32.856Z,19.80
2022-11-21T04:10:00.839Z,19.80
2022-11-21T04:12:28.833Z,19.50
2022-11-21T04:14:56.639Z,19.80
2022-11-21T04:17:24.411Z,20.00
2022-11-21T04:19:52.330Z,21.20
2022-11-21T04:22:20.127Z,21.50
2022-11-21T04:24:48.065Z,20.70
2022-11-21T04:27:15.932Z,21.80
2022-11-21T04:29:43.800Z,22.20
2022-11-21T04:32:11.667Z,22.50
2022-11-21T04:34:39.842Z,22.10
2022-11-21T04:37:11.421Z,22.60
2022-11-21T04:39:39.774Z,21.50
2022-11-21T04:42:07.643Z,24.20
2022-11-21T04:44:35.455Z,24.00
2022-11-21T04:47:05.529Z,34.80
2022-11-21T04:49:33.744Z,26.30
2022-11-21T04:52:01.882Z,27.30
2022-11-21T04:54:30.253Z,26.30
2022-11-21T04:56:58.330Z,24.20
2022-11-21T04:59:26.152Z,24.10
2022-11-21T05:01:54.063Z,24.50
2022-11-21T05:04:22.047Z,24.40
2022-11-21T05:06:49.874Z,25.10
2022-11-21T05:09:17.972Z,25.00
2022-11-21T05:12:04.446Z,25.90
2022-11-21T05:14:32.346Z,26.40
2022-11-21T05:17:00.315Z,24.90
2022-11-21T05:19:28.183Z,25.50
2022-11-21T05:21:56.767Z,25.10
2022-11-21T05:24:25.131Z,23.30
2022-11-21T05:26:54.731Z,24.10
2022-11-21T05:29:27.770Z,25.60
2022-11-21T05:31:56.428Z,29.70
2022-11-21T05:34:24.398Z,29.60
2022-11-21T05:37:01.380Z,25.00
2022-11-21T05:39:29.285Z,24.00
2022-11-21T05:42:01.476Z,24.50
2022-11-21T05:44:31.322Z,24.00
2022-11-21T05:46:59.607Z,24.30
2022-11-21T05:49:27.680Z,26.30
2022-11-21T05:51:55.665Z,29.30
2022-11-21T05:54:23.622Z,24.10
2022-11-21T05:56:51.488Z,26.40
2022-11-21T05:59:19.354Z,39.50
2022-11-21T06:02:05.860Z,24.90
2022-11-21T06:04:35.086Z,23.80
2022-11-21T06:07:03.016Z,24.00
2022-11-21T06:09:31.304Z,23.50
2022-11-21T06:11:59.275Z,24.50
2022-11-21T06:14:27.342Z,27.80
2022-11-21T06:16:55.624Z,25.50
2022-11-21T06:19:23.612Z,23.80
2022-11-21T06:21:51.468Z,27.10
2022-11-21T06:24:22.097Z,24.40
2022-11-21T06:26:50.469Z,23.00
2022-11-21T06:29:18.343Z,23.30
2022-11-21T06:31:46.310Z,21.10
2022-11-21T06:34:14.237Z,21.00
2022-11-21T06:36:42.352Z,21.30
2022-11-21T06:39:10.412Z,21.70
2022-11-21T06:41:38.501Z,22.70
2022-11-21T06:44:06.346Z,22.30
2022-11-21T06:46:34.233Z,25.30
2022-11-21T06:49:02.203Z,24.50
2022-11-21T06:51:30.165Z,25.00
2022-11-21T06:53:59.417Z,23.70
2022-11-21T06:56:29.718Z,22.00
2022-11-21T06:58:58.706Z,24.90
2022-11-21T07:01:26.950Z,30.80
2022-11-21T07:03:55.829Z,37.90
2022-11-21T07:06:24.444Z,39.70
2022-11-21T07:11:45.814Z,28.60
2022-11-21T07:14:13.631Z,27.60
2022-11-21T07:16:41.495Z,25.00
2022-11-21T07:19:09.485Z,23.60
2022-11-21T07:21:37.760Z,25.20
2022-11-21T07:24:06.280Z,24.40
2022-11-21T07:26:34.170Z,24.20
2022-11-21T07:29:02.115Z,23.50
2022-11-21T07:31:30.050Z,25.60
2022-11-21T07:33:57.864Z,23.70
2022-11-21T07:36:25.681Z,26.20
2022-11-21T07:38:53.656Z,28.90
2022-11-21T07:41:21.489Z,25.70
2022-11-21T07:43:49.386Z,25.50
2022-11-21T07:46:17.184Z,24.30
2022-11-21T07:48:45.018Z,25.70
2022-11-21T07:51:12.890Z,25.20
2022-11-21T07:53:40.760Z,28.20
2022-11-21T07:56:09.891Z,29.60
2022-11-21T07:58:37.872Z,27.80
2022-11-21T08:01:06.970Z,30.30
2022-11-21T08:03:35.192Z,29.60
2022-11-21T08:06:04.840Z,29.60
2022-11-21T08:08:32.977Z,30.30
2022-11-21T08:11:05.868Z,29.60
2022-11-21T08:13:35.523Z,31.90
2022-11-21T08:16:04.622Z,30.40
2022-11-21T08:18:34.276Z,31.80
2022-11-21T08:21:03.553Z,29.90
2022-11-21T08:23:32.178Z,29.00
2022-11-21T08:26:00.120Z,29.30
2022-11-21T08:28:28.410Z,29.60
2022-11-21T08:30:56.411Z,31.10
2022-11-21T08:33:24.399Z,30.50
2022-11-21T08:35:55.111Z,30.10
2022-11-21T08:38:23.293Z,28.70
2022-11-21T08:41:14.786Z,30.90
2022-11-21T08:43:45.765Z,32.10
2022-11-21T08:46:13.649Z,31.70
2022-11-21T08:48:41.515Z,30.40
2022-11-21T08:51:09.529Z,31.30
2022-11-21T08:53:37.508Z,31.20
2022-11-21T08:56:05.571Z,32.60
2022-11-21T08:58:33.601Z,28.00
2022-11-21T09:01:01.646Z,31.90
2022-11-21T09:03:31.435Z,30.70
2022-11-21T09:06:00.440Z,29.70
2022-11-21T09:08:30.793Z,32.40
2022-11-21T09:10:59.251Z,32.30
2022-11-21T09:13:27.721Z,34.20
2022-11-21T09:16:19.145Z,34.90
2022-11-21T09:18:51.642Z,34.00
2022-11-21T09:21:20.537Z,30.30
2022-11-21T09:23:48.343Z,29.90
2022-11-21T09:26:16.228Z,29.20
2022-11-21T09:28:44.162Z,32.10
2022-11-21T09:31:12.476Z,30.90
2022-11-21T09:33:40.347Z,32.00
2022-11-21T09:36:08.156Z,31.90
2022-11-21T09:38:35.964Z,31.50
2022-11-21T09:41:46.297Z,33.10
2022-11-21T09:44:39.322Z,31.50
2022-11-21T09:47:28.097Z,31.20
2022-11-21T09:50:18.039Z,30.50
2022-11-21T09:53:06.917Z,31.00
2022-11-21T09:55:34.768Z,33.90
2022-11-21T09:58:09.309Z,33.80
2022-11-21T10:00:37.244Z,29.30
2022-11-21T10:03:05.433Z,41.40
2022-11-21T10:05:51.679Z,32.80
2022-11-21T10:08:40.941Z,34.10
2022-11-21T10:12:05.256Z,38.60
2022-11-21T10:14:48.253Z,32.70
2022-11-21T10:17:48.762Z,32.10
2022-11-21T10:20:31.803Z,31.00
2022-11-21T10:23:08.885Z,32.10
2022-11-21T10:25:39.028Z,32.80
2022-11-21T10:28:19.576Z,32.50
2022-11-21T10:30:51.740Z,37.10
2022-11-21T10:33:30.754Z,33.00
2022-11-21T10:36:47.436Z,33.60
2022-11-21T10:39:24.540Z,31.90
2022-11-21T10:42:12.457Z,33.90
2022-11-21T10:44:58.900Z,32.20
2022-11-21T10:47:33.995Z,31.10
2022-11-21T10:50:10.771Z,36.40
2022-11-21T10:52:48.150Z,33.10
2022-11-21T10:55:18.145Z,35.50
2022-11-21T10:57:51.357Z,40.20
2022-11-21T11:00:24.897Z,33.50
2022-11-21T11:02:56.082Z,33.00
2022-11-21T11:05:26.429Z,34.20
2022-11-21T11:08:08.325Z,36.30
2022-11-21T11:10:36.120Z,34.40
2022-11-21T11:13:46.436Z,35.40
2022-11-21T11:16:17.315Z,34.60
2022-11-21T11:18:57.651Z,35.10
2022-11-21T11:21:31.255Z,35.90
2022-11-21T11:24:11.453Z,34.40
2022-11-21T11:26:49.043Z,36.60
2022-11-21T11:29:20.467Z,36.70
2022-11-21T11:31:56.698Z,35.70
2022-11-21T11:35:06.578Z,36.90
2022-11-21T11:37:55.530Z,37.50
2022-11-21T11:40:42.899Z,56.70
2022-11-21T11:43:35.749Z,40.50
2022-11-21T11:46:35.718Z,40.30
2022-11-21T11:49:20.184Z,44.80
2022-11-21T11:54:48.584Z,42.00
2022-11-21T11:57:17.510Z,41.60
2022-11-21T11:59:57.910Z,46.50
2022-11-21T12:02:40.922Z,40.10
2022-11-21T12:05:20.236Z,38.30
2022-11-21T12:11:24.740Z,40.40
2022-11-21T12:13:57.502Z,42.10
2022-11-21T12:16:26.912Z,44.30
2022-11-21T12:19:11.012Z,42.00
2022-11-21T12:21:38.870Z,39.20
2022-11-21T12:24:11.260Z,37.80
2022-11-21T12:26:48.283Z,44.70
2022-11-21T12:29:34.972Z,42.30
2022-11-21T12:32:30.533Z,48.60
2022-11-21T12:38:19.697Z,47.20
2022-11-21T12:40:56.589Z,42.00
2022-11-21T12:43:53.102Z,45.30
2022-11-21T12:46:34.877Z,41.50
2022-11-21T12:49:59.833Z,62.50
2022-11-21T12:53:00.505Z,52.40
2022-11-21T12:55:40.911Z,47.70
2022-11-21T12:58:32.986Z,49.30
2022-11-21T13:01:22.316Z,45.00
2022-11-21T13:04:15.716Z,50.00
2022-11-21T13:06:46.982Z,45.60
2022-11-21T13:09:19.181Z,46.40
2022-11-21T13:12:00.593Z,45.10
2022-11-21T13:14:45.269Z,60.70
2022-11-21T13:17:25.741Z,49.10
2022-11-21T13:20:05.317Z,46.60
2022-11-21T13:22:36.286Z,44.90
2022-11-21T13:25:30.129Z,45.80
2022-11-21T13:28:13.379Z,52.80
2022-11-21T13:30:50.957Z,43.90
2022-11-21T13:33:37.340Z,46.90
2022-11-21T13:36:08.021Z,48.80
2022-11-21T13:38:51.290Z,48.20
2022-11-21T13:41:53.480Z,48.50
2022-11-21T13:44:33.685Z,45.70
2022-11-21T13:47:02.886Z,41.70
2022-11-21T13:49:57.020Z,45.30
2022-11-21T13:52:55.997Z,44.50
2022-11-21T13:55:51.313Z,45.20
2022-11-21T13:58:34.469Z,50.80
2022-11-21T14:01:23.280Z,45.20
2022-11-21T14:04:09.588Z,46.20
2022-11-21T14:06:43.216Z,46.20
2022-11-21T14:09:28.273Z,69.20
2022-11-21T14:12:30.019Z,47.40
2022-11-21T14:15:00.674Z,66.50
2022-11-21T14:17:48.965Z,55.00
2022-11-21T14:20:19.296Z,57.50
2022-11-21T14:22:54.875Z,63.10
2022-11-21T14:25:36.451Z,85.50
2022-11-21T14:28:06.884Z,66.30
2022-11-21T14:30:40.157Z,50.00
2022-11-21T14:33:28.623Z,41.30
2022-11-21T14:36:19.290Z,98.40
2022-11-21T14:39:13.838Z,77.10
2022-11-21T14:41:39.360Z,46.70
2022-11-21T14:44:16.601Z,51.30
2022-11-21T14:46:47.354Z,46.40
2022-11-21T14:49:21.847Z,46.00
2022-11-21T14:52:11.037Z,50.30
2022-11-21T14:55:06.099Z,50.10
2022-11-21T14:57:41.796Z,49.90
2022-11-21T15:00:43.479Z,52.20
2022-11-21T15:03:04.657Z,113.40
2022-11-21T15:06:00.813Z,99.40
2022-11-21T15:11:13.715Z,51.40
2022-11-21T15:14:12.315Z,69.90
2022-11-21T15:16:33.084Z,59.30
2022-11-21T15:19:01.036Z,95.90
2022-11-21T15:21:29.738Z,57.80
2022-11-21T15:23:57.626Z,90.50
2022-11-21T15:26:33.969Z,59.20
2022-11-21T15:29:02.118Z,111.30
2022-11-21T15:31:30.002Z,89.80
2022-11-21T15:37:12.768Z,55.40
2022-11-21T15:39:45.546Z,79.20
2022-11-21T15:42:50.164Z,67.40
2022-11-21T15:45:26.988Z,64.30
2022-11-21T15:47:56.073Z,92.70
2022-11-21T15:50:25.110Z,74.40
2022-11-21T15:52:53.379Z,72.90
2022-11-21T15:55:31.500Z,73.30
2022-11-21T15:57:59.372Z,62.60
2022-11-21T16:00:27.233Z,70.40
2022-11-21T16:02:55.102Z,58.60
2022-11-21T16:05:23.072Z,88.40
2022-11-21T16:07:51.047Z,105.20
2022-11-21T16:10:26.101Z,59.10
2022-11-21T16:12:56.168Z,55.00
2022-11-21T16:15:24.115Z,55.90
2022-11-21T16:17:52.649Z,70.40
2022-11-21T16:20:20.781Z,101.50
2022-11-21T16:22:50.002Z,59.20
2022-11-21T16:25:18.104Z,69.60
2022-11-21T16:27:47.195Z,60.70
2022-11-21T16:30:15.421Z,65.70
2022-11-21T16:32:43.438Z,57.60
2022-11-21T16:35:11.406Z,59.40
2022-11-21T16:37:40.199Z,69.00
2022-11-21T16:40:10.005Z,61.70
2022-11-21T16:42:37.877Z,57.80
2022-11-21T16:45:06.182Z,76.00
2022-11-21T16:47:37.247Z,115.00
2022-11-21T16:50:05.910Z,86.50
2022-11-21T16:52:35.739Z,70.30
2022-11-21T16:55:04.592Z,72.80
2022-11-21T16:57:33.375Z,56.50
2022-11-21T17:00:01.247Z,71.10
2022-11-21T17:02:29.185Z,68.60
2022-11-21T17:04:57.382Z,91.40
2022-11-21T17:07:25.284Z,69.30
2022-11-21T17:09:53.147Z,82.40
2022-11-21T17:12:20.999Z,86.80
2022-11-21T17:14:52.794Z,100.60
2022-11-21T17:17:20.662Z,110.00
2022-11-21T17:19:48.981Z,83.30
2022-11-21T17:22:20.185Z,155.90
2022-11-21T17:24:53.439Z,87.60
2022-11-21T17:27:22.857Z,73.00
2022-11-21T17:29:51.324Z,81.50
2022-11-21T17:32:19.236Z,75.60
2022-11-21T17:34:47.103Z,64.10
2022-11-21T17:37:14.976Z,96.70
2022-11-21T17:39:42.890Z,88.90
2022-11-21T17:42:10.887Z,93.50
2022-11-21T17:44:38.748Z,71.40
2022-11-21T17:47:06.795Z,71.00
2022-11-21T17:49:37.308Z,90.30
2022-11-21T17:52:06.837Z,258.70
2022-11-21T17:54:34.914Z,112.30
2022-11-21T17:57:03.186Z,85.80
2022-11-21T17:59:31.273Z,70.70
2022-11-21T18:01:59.463Z,71.30
2022-11-21T18:04:28.570Z,76.80
2022-11-21T18:06:56.799Z,67.00
2022-11-21T18:09:24.775Z,57.40
2022-11-21T18:11:52.646Z,67.00
2022-11-21T18:14:20.613Z,53.40
2022-11-21T18:16:53.103Z,59.00
2022-11-21T18:19:22.192Z,67.00
2022-11-21T18:21:51.856Z,56.10
2022-11-21T18:24:19.727Z,57.90
2022-11-21T18:26:47.742Z,70.60
2022-11-21T18:32:04.051Z,69.60
2022-11-21T18:34:31.953Z,73.30
2022-11-21T18:36:59.790Z,114.60
2022-11-21T18:39:27.753Z,131.70
2022-11-21T18:41:55.827Z,75.60
2022-11-21T18:44:23.900Z,136.40
2022-11-21T18:46:52.019Z,59.20
2022-11-21T18:49:19.987Z,80.30
2022-11-21T18:51:48.851Z,126.40
2022-11-21T18:54:17.365Z,56.40
2022-11-21T18:56:45.390Z,52.50
2022-11-21T18:59:13.255Z,36.70
2022-11-21T19:01:41.326Z,91.40
2022-11-21T19:04:09.606Z,41.00
2022-11-21T19:06:37.517Z,42.70
2022-11-21T19:09:05.511Z,35.30
2022-11-21T19:11:33.328Z,32.90
2022-11-21T19:14:01.329Z,40.90
2022-11-21T19:16:36.856Z,83.50
2022-11-21T19:21:57.868Z,42.40
2022-11-21T19:24:25.792Z,218.90
2022-11-21T19:26:53.620Z,73.60
2022-11-21T19:29:21.536Z,46.70
2022-11-21T19:31:49.737Z,49.40
2022-11-21T19:34:17.908Z,36.80
2022-11-21T19:36:46.073Z,40.70
2022-11-21T19:39:14.382Z,33.00
2022-11-21T19:41:42.253Z,35.50
2022-11-21T19:44:11.585Z,37.20
2022-11-21T19:46:40.064Z,42.80
2022-11-21T19:49:10.860Z,135.60
2022-11-21T19:51:41.854Z,44.90
2022-11-21T19:54:12.341Z,38.70
2022-11-21T19:56:40.476Z,42.50
2022-11-21T19:59:12.618Z,48.00
2022-11-21T20:01:40.925Z,37.10
2022-11-21T20:04:09.128Z,30.60
2022-11-21T20:06:41.549Z,28.40
2022-11-21T20:09:12.056Z,65.70
2022-11-21T20:11:41.686Z,27.70
2022-11-21T20:14:10.024Z,29.10
2022-11-21T20:16:40.921Z,32.10
2022-11-21T20:19:12.335Z,32.50
2022-11-21T20:21:40.895Z,27.50
2022-11-21T20:24:08.902Z,28.40
2022-11-21T20:26:37.359Z,79.30
2022-11-21T20:29:06.304Z,30.50
2022-11-21T20:31:37.777Z,30.00
2022-11-21T20:34:09.894Z,31.20
2022-11-21T20:36:38.200Z,37.50
2022-11-21T20:39:15.615Z,34.60
2022-11-21T20:41:45.417Z,32.60
2022-11-21T20:45:07.045Z,33.20
2022-11-21T20:47:03.215Z,33.20
2022-11-21T20:49:31.975Z,27.20
2022-11-21T20:54:48.009Z,23.90
2022-11-21T20:57:16.061Z,21.70
2022-11-21T20:59:43.956Z,20.30
2022-11-21T21:02:13.903Z,21.30
2022-11-21T21:04:42.377Z,21.30
2022-11-21T21:07:10.463Z,26.10
2022-11-21T21:09:38.455Z,22.10
2022-11-21T21:12:06.597Z,24.00
2022-11-21T21:14:34.629Z,37.70
2022-11-21T21:17:02.523Z,28.50
2022-11-21T21:19:30.576Z,25.40
2022-11-21T21:21:58.974Z,26.90
2022-11-21T21:24:27.760Z,22.80
2022-11-21T21:26:55.568Z,19.10
2022-11-21T21:29:23.492Z,18.30
2022-11-21T21:31:52.558Z,19.70
2022-11-21T21:34:22.436Z,21.60
2022-11-21T21:36:51.551Z,50.20
2022-11-21T21:39:19.621Z,118.60
2022-11-21T21:41:47.994Z,103.10
2022-11-21T21:44:16.791Z,50.60
2022-11-21T21:46:45.102Z,31.00
2022-11-21T21:49:13.358Z,23.40
2022-11-21T21:51:41.525Z,22.40
2022-11-21T21:54:20.475Z,24.50
2022-11-21T21:56:48.519Z,27.20
2022-11-21T21:59:18.305Z,27.70
2022-11-21T22:01:46.894Z,29.30
2022-11-21T22:04:14.920Z,26.50
2022-11-21T22:06:42.895Z,26.40
2022-11-21T22:09:10.818Z,26.70
2022-11-21T22:11:39.423Z,25.80
2022-11-21T22:14:12.119Z,23.80
2022-11-21T22:16:40.962Z,21.50
2022-11-21T22:19:09.464Z,20.80
2022-11-21T22:21:38.565Z,21.70
2022-11-21T22:24:30.493Z,18.80
2022-11-21T22:26:58.513Z,21.50
2022-11-21T22:29:26.484Z,21.40
2022-11-21T22:31:54.327Z,21.50
2022-11-21T22:34:22.662Z,22.90
2022-11-21T22:36:50.475Z,21.30
2022-11-21T22:39:18.378Z,22.40
2022-11-21T22:41:46.294Z,21.00
2022-11-21T22:44:14.266Z,22.40
2022-11-21T22:46:42.221Z,21.10
2022-11-21T22:49:10.125Z,23.10
2022-11-21T22:51:38.009Z,23.30
2022-11-21T22:54:05.912Z,20.90
2022-11-21T22:56:33.793Z,22.30
2022-11-21T22:59:01.762Z,21.80
2022-11-21T23:01:29.787Z,24.20
2022-11-21T23:03:57.749Z,23.60
2022-11-21T23:06:27.200Z,25.20
2022-11-21T23:08:56.744Z,26.30
2022-11-21T23:11:36.370Z,23.90
2022-11-21T23:14:08.629Z,27.60
2022-11-21T23:16:37.041Z,27.20
2022-11-21T23:19:05.030Z,27.80
2022-11-21T23:21:32.947Z,26.20
2022-11-21T23:24:00.903Z,26.60
2022-11-21T23:26:28.786Z,24.90
2022-11-21T23:28:56.701Z,26.20
2022-11-21T23:31:24.663Z,26.60
2022-11-21T23:33:53.001Z,30.00
2022-11-21T23:36:20.886Z,27.50
2022-11-21T23:38:48.764Z,29.10
2022-11-21T23:41:16.624Z,28.20
2022-11-21T23:43:44.543Z,33.00
2022-11-21T23:46:12.427Z,26.90
2022-11-21T23:48:40.411Z,26.60
2022-11-21T23:51:08.791Z,25.20
2022-11-21T23:53:36.693Z,24.60
2022-11-21T23:56:04.874Z,24.80
2022-11-21T23:58:32.906Z,24.50
